Time;durP1;ratioP1;P1;durP2;ratioP2;P2;SDS_P1;SDS_P2;PMS_P1;PMS_P2;Temp;Humidity;BMP_temperature;BMP_pressure;BME280_temperature;BME280_humidity;BME280_pressure;Samples;Min_cycle;Max_cycle;Signal;HPM_P1;HPM_P2
2024/01/03 00:00:06;;;;;;;6.80;4.65;;;23.20;99.90;;;;;;5013171;28;19968;-51
2024/01/03 00:02:32;;;;;;;6.05;4.28;;;23.20;99.90;;;;;;5013130;28;20069;-49
2024/01/03 00:04:58;;;;;;;5.97;4.53;;;23.10;99.90;;;;;;5013193;28;20072;-52
2024/01/03 00:07:24;;;;;;;7.07;5.07;;;23.10;99.90;;;;;;5013274;28;20030;-49
2024/01/03 00:09:55;;;;;;;6.60;4.30;;;23.10;99.90;;;;;;5011926;28;20107;-52
2024/01/03 00:12:24;;;;;;;6.18;4.18;;;23.10;99.90;;;;;;5013218;28;20370;-49
2024/01/03 00:14:51;;;;;;;6.93;4.28;;;23.10;99.90;;;;;;5013031;28;20470;-49
2024/01/03 00:17:18;;;;;;;4.70;3.80;;;23.10;99.90;;;;;;5013018;28;20026;-51
2024/01/03 00:19:44;;;;;;;6.57;4.15;;;23.10;99.90;;;;;;5012666;28;20109;-50
2024/01/03 00:22:13;;;;;;;5.32;4.25;;;23.00;99.90;;;;;;5011848;28;20053;-50
2024/01/03 00:24:46;;;;;;;6.32;3.83;;;23.10;99.90;;;;;;5013178;28;20018;-50
2024/01/03 00:27:12;;;;;;;6.22;4.75;;;23.10;99.90;;;;;;5012951;28;20493;-50
2024/01/03 00:30:00;;;;;;;6.85;4.95;;;23.00;99.90;;;;;;5013119;28;20041;-49
2024/01/03 00:32:26;;;;;;;4.93;3.90;;;23.00;99.90;;;;;;5012721;28;20112;-48
2024/01/03 00:34:52;;;;;;;6.45;4.03;;;23.00;99.90;;;;;;5011148;28;20120;-50
2024/01/03 00:37:29;;;;;;;6.63;4.30;;;23.00;99.90;;;;;;5012744;28;20044;-50
2024/01/03 00:39:57;;;;;;;5.60;4.03;;;23.00;99.90;;;;;;5012651;28;20030;-51
2024/01/03 00:42:23;;;;;;;6.97;4.35;;;23.00;99.90;;;;;;5011515;28;20092;-51
2024/01/03 00:44:49;;;;;;;8.43;4.65;;;22.90;99.90;;;;;;5012494;28;20037;-49
2024/01/03 00:47:16;;;;;;;7.60;4.43;;;22.90;99.90;;;;;;5012398;28;20026;-51
2024/01/03 00:49:41;;;;;;;6.82;5.15;;;22.90;99.90;;;;;;5012824;28;20359;-51
2024/01/03 00:52:08;;;;;;;5.35;3.95;;;22.90;99.90;;;;;;5012622;28;20044;-48
2024/01/03 00:54:35;;;;;;;5.50;3.90;;;22.90;99.90;;;;;;5011165;28;20172;-49
2024/01/03 00:57:02;;;;;;;6.15;3.92;;;22.90;99.90;;;;;;5012573;28;20026;-50
2024/01/03 00:59:28;;;;;;;5.18;3.90;;;22.90;99.90;;;;;;5012465;28;20025;-49
2024/01/03 01:01:55;;;;;;;4.95;3.72;;;22.90;99.90;;;;;;5013005;28;20120;-48
2024/01/03 01:04:21;;;;;;;5.57;3.83;;;22.80;99.90;;;;;;5012476;28;20025;-47
2024/01/03 01:06:47;;;;;;;5.05;4.13;;;22.80;99.90;;;;;;5012501;28;20101;-48
2024/01/03 01:09:13;;;;;;;5.88;4.55;;;22.80;99.90;;;;;;5012655;28;20129;-49
2024/01/03 01:11:39;;;;;;;5.32;3.70;;;22.80;99.90;;;;;;5011262;28;20029;-49
2024/01/03 01:14:04;;;;;;;5.07;3.88;;;22.80;99.90;;;;;;5012445;28;20109;-49
2024/01/03 01:16:30;;;;;;;5.55;3.80;;;22.80;99.90;;;;;;5012155;28;20026;-50
2024/01/03 01:18:56;;;;;;;4.82;3.72;;;22.80;99.90;;;;;;5012527;28;20084;-50
2024/01/03 01:21:22;;;;;;;5.60;3.72;;;22.80;99.90;;;;;;5012190;28;20371;-50
2024/01/03 01:23:47;;;;;;;5.32;3.75;;;22.70;99.90;;;;;;5012446;28;20064;-50
2024/01/03 01:26:13;;;;;;;4.97;3.67;;;22.80;99.90;;;;;;5012509;28;20037;-51
2024/01/03 01:28:39;;;;;;;4.95;3.90;;;22.70;99.90;;;;;;5012154;28;20033;-51
2024/01/03 01:31:05;;;;;;;6.35;3.80;;;22.70;99.90;;;;;;5012240;28;20848;-50
2024/01/03 01:33:30;;;;;;;4.47;3.33;;;22.70;99.90;;;;;;5015202;28;20026;-50
2024/01/03 01:35:56;;;;;;;5.57;3.65;;;22.70;99.90;;;;;;5016072;28;20032;-49
2024/01/03 01:38:22;;;;;;;5.32;3.38;;;22.70;99.90;;;;;;5016010;28;20467;-50
2024/01/03 01:40:49;;;;;;;4.82;3.33;;;22.70;99.90;;;;;;5015926;28;20488;-50
2024/01/03 01:43:16;;;;;;;4.28;3.53;;;22.70;99.90;;;;;;5016127;28;20022;-50
2024/01/03 01:45:42;;;;;;;5.82;3.80;;;22.70;99.90;;;;;;5015864;28;20029;-48
2024/01/03 01:48:08;;;;;;;3.97;3.38;;;22.60;99.90;;;;;;5015817;28;20109;-50
2024/01/03 01:50:36;;;;;;;4.57;3.28;;;22.60;99.90;;;;;;5014194;28;20026;-50
2024/01/03 01:53:02;;;;;;;4.32;3.92;;;22.60;99.90;;;;;;4996983;28;20035;-50
2024/01/03 01:55:28;;;;;;;5.07;3.15;;;22.60;99.90;;;;;;4994424;28;20037;-50
2024/01/03 01:57:54;;;;;;;5.32;3.65;;;22.60;99.90;;;;;;4993878;28;20053;-50
2024/01/03 02:00:20;;;;;;;4.32;3.35;;;22.60;99.90;;;;;;5008095;23;20037;-54
2024/01/03 02:02:47;;;;;;;4.03;3.00;;;22.60;99.90;;;;;;5015731;28;20471;-55
2024/01/03 02:05:13;;;;;;;6.27;3.37;;;22.50;99.90;;;;;;5015091;28;20025;-53
2024/01/03 02:07:39;;;;;;;4.53;2.70;;;22.50;99.90;;;;;;5015342;28;20022;-53
2024/01/03 02:10:08;;;;;;;4.45;3.08;;;22.50;99.90;;;;;;5015319;28;20101;-53
2024/01/03 02:12:35;;;;;;;5.95;3.50;;;22.60;99.90;;;;;;5015260;28;20100;-53
2024/01/03 02:15:00;;;;;;;3.80;3.22;;;22.50;99.90;;;;;;5015094;28;20037;-53
2024/01/03 02:17:28;;;;;;;4.47;3.47;;;22.50;99.90;;;;;;5014216;28;20033;-53
2024/01/03 02:20:00;;;;;;;5.00;3.38;;;22.50;99.90;;;;;;5015265;28;20097;-54
2024/01/03 02:22:28;;;;;;;4.18;3.30;;;22.50;99.90;;;;;;5015110;28;20080;-54
2024/01/03 02:24:54;;;;;;;4.65;3.58;;;22.50;99.90;;;;;;5015061;28;20072;-53
2024/01/03 02:27:20;;;;;;;4.22;3.30;;;22.50;99.90;;;;;;5015032;28;20052;-53
2024/01/03 02:29:46;;;;;;;4.50;3.40;;;22.50;99.90;;;;;;5015271;28;20054;-54
2024/01/03 02:32:12;;;;;;;3.30;2.72;;;22.40;99.90;;;;;;5014991;28;20473;-53
2024/01/03 02:34:38;;;;;;;3.85;2.88;;;22.40;99.90;;;;;;5014912;28;20545;-53
2024/01/03 02:37:04;;;;;;;3.97;2.70;;;22.40;99.90;;;;;;5014775;28;20046;-53
2024/01/03 02:39:31;;;;;;;4.53;3.05;;;22.40;99.90;;;;;;5014759;28;20030;-53
2024/01/03 02:41:57;;;;;;;5.22;3.25;;;22.40;99.90;;;;;;5014558;28;20030;-53
2024/01/03 02:44:26;;;;;;;5.88;3.33;;;22.40;99.90;;;;;;5014436;28;20474;-54
2024/01/03 02:46:52;;;;;;;3.00;2.70;;;22.40;99.90;;;;;;5013423;28;20076;-52
2024/01/03 02:49:17;;;;;;;3.40;2.83;;;22.40;99.90;;;;;;5014716;28;20061;-53
2024/01/03 02:51:43;;;;;;;3.65;2.53;;;22.40;99.90;;;;;;5014639;28;20037;-53
2024/01/03 02:54:09;;;;;;;3.88;2.88;;;22.40;99.90;;;;;;5014428;28;20508;-53
2024/01/03 02:56:41;;;;;;;3.67;2.88;;;22.40;99.90;;;;;;5014518;28;20030;-54
2024/01/03 02:59:07;;;;;;;4.50;2.85;;;22.30;99.90;;;;;;5014416;28;20073;-53
2024/01/03 03:01:33;;;;;;;3.40;2.70;;;22.30;99.90;;;;;;5014859;28;20049;-53
2024/01/03 03:03:59;;;;;;;3.92;2.83;;;22.30;99.90;;;;;;5014342;28;20021;-53
2024/01/03 03:06:25;;;;;;;4.10;2.88;;;22.30;99.90;;;;;;5014420;28;20486;-53
2024/01/03 03:08:51;;;;;;;3.83;2.50;;;22.30;99.90;;;;;;5014316;28;20041;-54
2024/01/03 03:11:17;;;;;;;4.00;2.78;;;22.30;99.90;;;;;;5014371;28;20022;-54
2024/01/03 03:13:43;;;;;;;4.43;2.75;;;22.30;99.90;;;;;;5012970;28;20084;-54
2024/01/03 03:16:09;;;;;;;5.00;2.85;;;22.30;99.90;;;;;;5012974;28;20421;-54
2024/01/03 03:18:35;;;;;;;3.50;2.35;;;22.30;99.90;;;;;;5014358;28;20030;-53
2024/01/03 03:21:00;;;;;;;3.92;2.85;;;22.20;99.90;;;;;;5014033;28;20026;-54
2024/01/03 03:23:26;;;;;;;2.80;2.33;;;22.30;99.90;;;;;;5013931;28;20030;-54
2024/01/03 03:25:52;;;;;;;3.33;2.20;;;22.20;99.90;;;;;;5013757;28;20025;-54
2024/01/03 03:28:18;;;;;;;3.97;2.55;;;22.20;99.90;;;;;;5013883;28;20030;-53
2024/01/03 03:30:44;;;;;;;3.38;2.45;;;22.20;99.90;;;;;;5013833;28;20056;-53
2024/01/03 03:33:10;;;;;;;5.18;2.60;;;22.20;99.90;;;;;;5013783;28;20053;-53
2024/01/03 03:35:35;;;;;;;2.83;2.00;;;22.20;99.90;;;;;;5013995;28;20480;-54
2024/01/03 03:38:01;;;;;;;3.50;2.58;;;22.20;99.90;;;;;;5013746;28;20026;-53
2024/01/03 03:40:27;;;;;;;3.00;2.35;;;22.20;99.90;;;;;;5012385;28;20108;-53
2024/01/03 03:42:53;;;;;;;2.97;2.38;;;22.20;99.90;;;;;;5013603;28;20022;-54
2024/01/03 03:45:19;;;;;;;3.08;2.55;;;22.20;99.90;;;;;;5012306;28;20022;-53
2024/01/03 03:47:47;;;;;;;3.30;2.47;;;22.20;99.90;;;;;;5012208;28;20061;-53
2024/01/03 03:50:12;;;;;;;2.83;2.10;;;22.20;99.90;;;;;;5013556;28;20100;-53
2024/01/03 03:52:40;;;;;;;3.05;1.95;;;22.20;99.90;;;;;;5013586;28;20498;-53
2024/01/03 03:55:07;;;;;;;2.47;2.25;;;22.10;99.90;;;;;;5011672;28;20116;-53
2024/01/03 03:57:32;;;;;;;2.97;2.40;;;22.10;99.90;;;;;;5013364;28;20030;-54
2024/01/03 03:59:58;;;;;;;2.53;1.98;;;22.10;99.90;;;;;;5013333;28;20032;-54
2024/01/03 04:02:24;;;;;;;2.63;1.92;;;22.10;99.90;;;;;;5025405;23;20069;-52
2024/01/03 04:04:51;;;;;;;3.08;1.92;;;22.10;99.90;;;;;;5013123;28;20062;-52
2024/01/03 04:07:17;;;;;;;2.78;1.70;;;22.10;99.90;;;;;;5013150;28;20036;-52
2024/01/03 04:09:44;;;;;;;2.75;2.00;;;22.10;99.90;;;;;;5013103;28;20097;-52
2024/01/03 04:12:10;;;;;;;2.85;2.00;;;22.10;99.90;;;;;;5013207;28;20026;-52
2024/01/03 04:14:38;;;;;;;2.53;1.80;;;22.10;99.90;;;;;;5013267;28;20479;-51
2024/01/03 04:17:04;;;;;;;2.33;1.80;;;22.10;99.90;;;;;;5012994;28;20025;-52
2024/01/03 04:19:30;;;;;;;2.65;1.88;;;22.10;99.90;;;;;;5013036;28;20564;-51
2024/01/03 04:21:57;;;;;;;3.47;1.50;;;22.10;99.90;;;;;;5012836;28;20049;-53
2024/01/03 04:24:23;;;;;;;2.17;1.67;;;22.00;99.90;;;;;;5012789;28;20488;-52
2024/01/03 04:26:49;;;;;;;1.80;1.70;;;22.00;99.90;;;;;;5012902;28;20018;-52
2024/01/03 04:29:15;;;;;;;2.35;1.83;;;22.00;99.90;;;;;;5012664;28;20076;-52
2024/01/03 04:31:41;;;;;;;2.80;2.17;;;22.00;99.90;;;;;;5013000;28;20022;-51
2024/01/03 04:34:07;;;;;;;2.38;1.83;;;22.00;99.90;;;;;;5012834;28;20041;-52
2024/01/03 04:36:33;;;;;;;2.65;1.70;;;22.00;99.90;;;;;;5012677;28;20462;-52
2024/01/03 04:38:58;;;;;;;1.88;1.42;;;22.00;99.90;;;;;;5012694;28;20033;-51
2024/01/03 04:41:24;;;;;;;2.17;1.70;;;22.00;99.90;;;;;;5011326;28;20026;-53
2024/01/03 04:43:50;;;;;;;1.73;1.40;;;21.90;99.90;;;;;;5012670;28;20025;-52
2024/01/03 04:46:16;;;;;;;1.83;1.50;;;21.90;99.90;;;;;;5012609;28;20022;-52
2024/01/03 04:48:42;;;;;;;3.65;1.90;;;21.90;99.90;;;;;;5012713;28;20030;-52
2024/01/03 04:51:09;;;;;;;1.83;1.67;;;21.90;99.90;;;;;;5010111;28;20533;-52
2024/01/03 04:53:34;;;;;;;2.15;1.80;;;21.90;99.90;;;;;;4993656;28;20037;-52
2024/01/03 04:56:00;;;;;;;2.53;1.65;;;21.90;99.90;;;;;;4992088;28;20038;-52
2024/01/03 04:58:26;;;;;;;2.13;1.60;;;21.90;99.90;;;;;;4990739;28;20382;-52
2024/01/03 05:00:52;;;;;;;3.08;1.75;;;21.90;99.90;;;;;;4992495;28;20057;-52
2024/01/03 05:03:19;;;;;;;2.35;1.60;;;21.90;99.90;;;;;;4992953;28;20421;-52
2024/01/03 05:05:45;;;;;;;2.20;1.58;;;21.90;99.90;;;;;;4992280;28;20026;-52
2024/01/03 05:08:11;;;;;;;2.08;1.50;;;21.90;99.90;;;;;;4997160;28;20034;-52
2024/01/03 05:10:36;;;;;;;2.05;1.30;;;21.90;99.90;;;;;;4996892;28;20481;-53
2024/01/03 05:13:02;;;;;;;2.38;1.40;;;21.90;99.90;;;;;;4995685;28;20074;-52
2024/01/03 05:15:28;;;;;;;2.00;1.55;;;21.90;99.90;;;;;;4996647;28;20518;-52
2024/01/03 05:17:54;;;;;;;2.90;1.33;;;21.80;99.90;;;;;;4996827;28;20097;-52
2024/01/03 05:20:19;;;;;;;1.48;1.23;;;21.80;99.90;;;;;;4996665;28;20441;-51
2024/01/03 05:22:45;;;;;;;2.08;1.40;;;21.80;99.90;;;;;;4996728;28;20027;-51
2024/01/03 05:25:11;;;;;;;2.30;1.33;;;21.90;99.90;;;;;;4996814;28;20019;-52
2024/01/03 05:27:37;;;;;;;3.08;1.40;;;21.80;99.90;;;;;;4996508;28;20069;-53
2024/01/03 05:30:03;;;;;;;2.10;1.38;;;21.90;99.90;;;;;;4996619;28;20431;-52
2024/01/03 05:32:29;;;;;;;1.92;1.38;;;21.80;99.90;;;;;;4996428;28;20129;-52
2024/01/03 05:34:54;;;;;;;2.55;1.30;;;21.80;99.90;;;;;;4996422;28;20118;-52
2024/01/03 05:37:20;;;;;;;1.63;1.23;;;21.80;99.90;;;;;;4996608;28;20093;-51
2024/01/03 05:39:46;;;;;;;3.25;1.67;;;21.80;99.90;;;;;;4996512;28;20371;-52
2024/01/03 05:42:12;;;;;;;1.75;1.00;;;21.80;99.90;;;;;;4996601;28;20034;-52
2024/01/03 05:44:37;;;;;;;2.05;1.70;;;21.80;99.90;;;;;;4996537;28;20089;-52
2024/01/03 05:47:04;;;;;;;1.98;1.50;;;21.80;99.90;;;;;;4996134;28;20127;-52
2024/01/03 05:49:30;;;;;;;2.95;1.27;;;21.80;99.90;;;;;;4996210;28;20029;-52
2024/01/03 05:51:56;;;;;;;3.15;1.23;;;21.80;99.90;;;;;;4996105;28;20010;-52
2024/01/03 05:54:22;;;;;;;2.28;1.25;;;21.80;99.90;;;;;;4996030;28;20045;-52
2024/01/03 05:56:47;;;;;;;1.17;0.93;;;21.80;99.90;;;;;;4996072;28;20022;-52
2024/01/03 05:59:13;;;;;;;2.10;1.35;;;21.80;99.90;;;;;;4996292;28;20073;-53
2024/01/03 06:01:39;;;;;;;2.47;1.67;;;21.70;99.90;;;;;;4994578;28;20100;-52
2024/01/03 06:04:05;;;;;;;2.20;1.88;;;21.80;99.90;;;;;;4995894;28;20050;-51
2024/01/03 06:06:31;;;;;;;2.13;1.38;;;21.70;99.90;;;;;;4995762;28;20494;-51
2024/01/03 06:08:56;;;;;;;1.75;1.20;;;21.80;99.90;;;;;;4995856;28;20026;-51
2024/01/03 06:11:22;;;;;;;1.67;1.15;;;21.70;99.90;;;;;;4995855;28;20033;-52
2024/01/03 06:13:51;;;;;;;1.27;1.05;;;21.70;99.90;;;;;;4995795;28;20165;-52
2024/01/03 06:16:17;;;;;;;1.98;1.05;;;21.70;99.90;;;;;;4994800;28;20019;-52
2024/01/03 06:18:42;;;;;;;3.40;1.17;;;21.70;99.90;;;;;;4995143;28;20026;-52
2024/01/03 06:21:11;;;;;;;1.20;1.10;;;21.70;99.90;;;;;;4995597;28;20026;-52
2024/01/03 06:23:39;;;;;;;1.50;1.30;;;21.70;99.90;;;;;;4995470;28;20513;-51
2024/01/03 06:26:08;;;;;;;1.50;1.33;;;21.70;99.90;;;;;;4995583;28;20070;-51
2024/01/03 06:28:34;;;;;;;1.90;1.23;;;21.70;99.90;;;;;;4994248;28;20025;-51
2024/01/03 06:31:02;;;;;;;1.40;1.30;;;21.70;99.90;;;;;;4995452;28;20030;-52
2024/01/03 06:33:28;;;;;;;2.30;1.33;;;21.70;99.90;;;;;;4995198;28;20122;-51
2024/01/03 06:35:54;;;;;;;2.47;1.50;;;21.70;99.90;;;;;;4995212;28;20109;-51
2024/01/03 06:38:20;;;;;;;1.75;1.30;;;21.70;99.90;;;;;;4995098;28;20506;-51
2024/01/03 06:40:46;;;;;;;1.58;1.20;;;21.70;99.90;;;;;;4995464;28;20038;-52
2024/01/03 06:43:11;;;;;;;2.22;1.25;;;21.70;99.90;;;;;;4995229;28;20379;-52
2024/01/03 06:45:37;;;;;;;2.75;1.40;;;21.70;99.90;;;;;;4995047;28;20137;-52
2024/01/03 06:48:03;;;;;;;1.63;1.15;;;21.70;99.90;;;;;;4994982;28;20030;-52
2024/01/03 06:50:29;;;;;;;2.03;1.33;;;21.70;99.90;;;;;;4995040;28;20027;-51
2024/01/03 06:52:55;;;;;;;2.22;1.15;;;21.60;99.90;;;;;;4994933;28;20030;-52
2024/01/03 06:55:20;;;;;;;0.93;0.85;;;21.60;99.90;;;;;;4993809;28;20030;-51
2024/01/03 06:57:48;;;;;;;2.30;1.13;;;21.60;99.90;;;;;;4994893;28;20093;-52
2024/01/03 07:00:15;;;;;;;2.03;1.15;;;21.60;99.90;;;;;;4994705;28;20026;-52
2024/01/03 07:02:41;;;;;;;1.58;0.82;;;21.60;99.90;;;;;;4993266;28;20517;-52
2024/01/03 07:05:07;;;;;;;1.95;1.33;;;21.60;99.90;;;;;;4994800;28;20039;-52
2024/01/03 07:07:32;;;;;;;1.52;1.02;;;21.60;99.90;;;;;;4994810;28;20374;-52
2024/01/03 07:09:58;;;;;;;2.90;1.48;;;21.60;99.90;;;;;;4994723;28;20022;-52
2024/01/03 07:12:24;;;;;;;1.13;0.80;;;21.50;99.90;;;;;;4994522;28;20070;-52
2024/01/03 07:14:50;;;;;;;1.02;0.90;;;21.50;99.90;;;;;;4994360;28;20117;-52
2024/01/03 07:17:16;;;;;;;1.55;0.80;;;21.50;99.90;;;;;;4994877;28;20022;-51
2024/01/03 07:19:41;;;;;;;2.47;1.17;;;21.50;99.90;;;;;;4994861;28;20578;-51
2024/01/03 07:22:07;;;;;;;6.38;1.55;;;21.50;99.90;;;;;;4994842;28;20124;-52
2024/01/03 07:24:36;;;;;;;3.55;1.02;;;21.50;99.90;;;;;;4994504;28;20034;-52
2024/01/03 07:27:02;;;;;;;3.58;1.30;;;21.50;99.90;;;;;;4994495;28;20054;-52
2024/01/03 07:29:28;;;;;;;1.30;1.10;;;21.50;99.90;;;;;;4993323;28;20060;-52
2024/01/03 07:31:54;;;;;;;1.67;1.13;;;21.50;99.90;;;;;;4994349;28;20026;-52
2024/01/03 07:34:19;;;;;;;4.53;1.00;;;21.50;99.90;;;;;;4994307;28;20034;-52
2024/01/03 07:36:45;;;;;;;3.13;1.10;;;21.50;99.90;;;;;;4994403;28;20034;-52
2024/01/03 07:39:11;;;;;;;4.95;1.35;;;21.50;99.90;;;;;;4994071;28;20061;-52
2024/01/03 07:41:37;;;;;;;2.80;1.35;;;21.50;99.90;;;;;;4994031;28;20050;-52
2024/01/03 07:44:03;;;;;;;2.55;1.13;;;21.50;99.90;;;;;;4993939;28;20048;-52
2024/01/03 07:46:29;;;;;;;2.92;1.38;;;21.50;99.90;;;;;;4993908;28;20026;-52
2024/01/03 07:48:55;;;;;;;4.35;1.70;;;21.50;99.90;;;;;;4993968;28;20027;-52
2024/01/03 07:51:20;;;;;;;3.15;1.67;;;21.50;99.90;;;;;;4994087;28;20446;-52
2024/01/03 07:53:46;;;;;;;4.22;1.15;;;21.50;99.90;;;;;;4993891;28;20106;-52
2024/01/03 07:56:12;;;;;;;1.42;1.08;;;21.50;99.90;;;;;;4993827;28;20041;-52
2024/01/03 07:58:38;;;;;;;2.95;1.48;;;21.50;99.90;;;;;;5008670;28;20171;-52
2024/01/03 08:01:04;;;;;;;4.47;1.10;;;21.50;99.90;;;;;;4992421;28;20141;-52
2024/01/03 08:03:29;;;;;;;2.38;1.20;;;21.50;99.90;;;;;;4993675;28;20023;-51
2024/01/03 08:05:55;;;;;;;2.35;1.30;;;21.60;99.90;;;;;;4993831;28;20101;-52
2024/01/03 08:08:21;;;;;;;2.97;0.95;;;21.60;99.90;;;;;;4993853;28;20033;-51
2024/01/03 08:10:47;;;;;;;1.77;0.93;;;21.60;99.90;;;;;;4993685;28;20113;-51
2024/01/03 08:13:13;;;;;;;2.90;0.97;;;21.60;99.90;;;;;;4993544;28;20022;-52
2024/01/03 08:15:39;;;;;;;1.65;0.95;;;21.60;99.90;;;;;;4992255;28;20042;-51
2024/01/03 08:18:04;;;;;;;2.42;1.00;;;21.60;99.90;;;;;;4993404;28;20026;-51
2024/01/03 08:20:30;;;;;;;1.50;1.30;;;21.70;99.90;;;;;;4993549;28;20023;-51
2024/01/03 08:22:56;;;;;;;1.95;1.08;;;21.70;99.90;;;;;;4993414;28;20046;-51
2024/01/03 08:25:22;;;;;;;1.70;0.95;;;21.70;99.90;;;;;;4993574;28;20088;-51
2024/01/03 08:27:48;;;;;;;2.35;0.90;;;21.70;99.90;;;;;;4993389;28;20449;-52
2024/01/03 08:30:14;;;;;;;3.15;0.73;;;21.80;99.90;;;;;;4993218;28;20046;-51
2024/01/03 08:32:40;;;;;;;3.83;1.30;;;21.80;99.90;;;;;;4992171;28;20084;-52
2024/01/03 08:35:07;;;;;;;2.45;1.00;;;21.80;99.90;;;;;;4993089;28;20080;-52
2024/01/03 08:37:33;;;;;;;2.30;1.23;;;21.80;99.90;;;;;;4993232;28;20026;-52
2024/01/03 08:40:00;;;;;;;3.17;1.33;;;21.80;99.90;;;;;;4993152;28;20034;-51
2024/01/03 08:42:26;;;;;;;1.80;1.10;;;21.80;99.90;;;;;;4992778;28;20085;-52
2024/01/03 08:44:52;;;;;;;3.20;1.25;;;21.90;99.90;;;;;;4993274;28;20109;-52
2024/01/03 08:47:18;;;;;;;2.50;1.55;;;21.90;99.90;;;;;;4992908;28;20025;-52
2024/01/03 08:49:44;;;;;;;1.10;0.70;;;21.90;99.90;;;;;;4992973;28;20359;-51
2024/01/03 08:52:10;;;;;;;3.05;1.10;;;21.90;99.90;;;;;;4992897;28;20054;-51
2024/01/03 08:54:36;;;;;;;1.90;1.20;;;21.90;99.90;;;;;;4992912;28;20066;-51
2024/01/03 08:57:03;;;;;;;3.38;1.20;;;22.00;99.90;;;;;;4992814;28;20018;-52
2024/01/03 08:59:29;;;;;;;3.70;1.33;;;22.00;99.90;;;;;;4992949;28;20494;-52
2024/01/03 09:01:57;;;;;;;2.83;1.23;;;22.10;99.90;;;;;;4992910;28;20082;-51
2024/01/03 09:04:24;;;;;;;2.08;1.20;;;22.10;99.90;;;;;;4993095;28;20392;-51
2024/01/03 09:06:53;;;;;;;2.13;1.35;;;22.10;99.90;;;;;;4992865;28;20049;-51
2024/01/03 09:09:19;;;;;;;3.00;1.40;;;22.10;99.90;;;;;;4992684;28;20033;-52
2024/01/03 09:11:45;;;;;;;3.40;1.40;;;22.10;99.90;;;;;;4992685;28;20031;-52
2024/01/03 09:14:12;;;;;;;2.25;1.23;;;22.10;99.90;;;;;;4992885;28;20042;-52
2024/01/03 09:16:39;;;;;;;3.58;1.65;;;22.20;99.90;;;;;;4992778;28;20029;-52
2024/01/03 09:19:05;;;;;;;3.47;1.23;;;22.20;99.90;;;;;;4992793;28;20026;-52
2024/01/03 09:21:31;;;;;;;3.33;1.17;;;22.20;99.90;;;;;;4992675;28;20475;-52
2024/01/03 09:23:57;;;;;;;2.22;1.40;;;22.20;99.90;;;;;;4992625;28;20486;-52
2024/01/03 09:26:23;;;;;;;2.47;1.35;;;22.30;99.90;;;;;;5007982;28;20541;-52
2024/01/03 09:28:51;;;;;;;2.35;1.33;;;22.30;99.90;;;;;;4992648;28;20046;-52
2024/01/03 09:31:18;;;;;;;3.05;1.60;;;22.30;99.90;;;;;;4992477;28;20160;-52
2024/01/03 09:33:43;;;;;;;2.47;1.35;;;22.40;99.90;;;;;;4992459;28;20035;-52
2024/01/03 09:36:20;;;;;;;6.68;1.63;;;22.40;99.90;;;;;;4992511;28;20030;-52
2024/01/03 09:38:47;;;;;;;3.08;1.85;;;22.40;99.90;;;;;;4992422;28;20022;-52
2024/01/03 09:41:17;;;;;;;3.40;2.00;;;22.40;99.90;;;;;;4992449;28;20046;-52
2024/01/03 09:43:43;;;;;;;5.10;1.90;;;22.50;99.90;;;;;;4992313;28;20038;-52
2024/01/03 09:46:12;;;;;;;3.90;1.98;;;22.50;99.90;;;;;;4992265;28;20502;-52
2024/01/03 09:48:42;;;;;;;2.70;1.50;;;22.50;99.90;;;;;;4992367;28;20036;-52
2024/01/03 09:51:08;;;;;;;3.40;1.90;;;22.60;99.90;;;;;;4992381;28;20092;-52
2024/01/03 09:53:35;;;;;;;2.72;2.00;;;22.60;99.90;;;;;;4992659;28;20026;-52
2024/01/03 09:56:01;;;;;;;4.28;2.30;;;22.70;99.90;;;;;;4994804;28;20034;-52
2024/01/03 09:58:27;;;;;;;2.95;1.80;;;22.70;99.90;;;;;;4996232;28;20026;-52
2024/01/03 10:00:54;;;;;;;4.47;2.72;;;22.70;99.90;;;;;;4995920;28;20082;-52
2024/01/03 10:03:19;;;;;;;4.53;2.40;;;22.80;99.90;;;;;;4995819;28;20379;-52
2024/01/03 10:05:45;;;;;;;5.03;2.60;;;22.80;99.90;;;;;;4995772;28;20072;-51
2024/01/03 10:08:18;;;;;;;3.85;2.25;;;22.80;99.90;;;;;;4995958;28;20022;-51
2024/01/03 10:10:47;;;;;;;2.95;1.92;;;22.90;99.90;;;;;;5010906;28;20037;-52
2024/01/03 10:13:17;;;;;;;3.03;2.08;;;22.90;99.90;;;;;;4995670;28;20058;-52
2024/01/03 10:15:47;;;;;;;6.53;2.50;;;22.90;99.90;;;;;;4994508;28;20042;-52
2024/01/03 10:18:17;;;;;;;3.42;2.15;;;23.00;99.90;;;;;;4995562;28;20435;-53
2024/01/03 10:20:43;;;;;;;5.22;1.90;;;23.00;99.90;;;;;;4995621;28;20034;-53
2024/01/03 10:23:10;;;;;;;3.47;2.35;;;23.10;99.90;;;;;;4995620;28;20097;-52
2024/01/03 10:25:37;;;;;;;3.20;2.20;;;23.10;99.90;;;;;;4995513;28;20026;-52
2024/01/03 10:28:05;;;;;;;3.42;2.35;;;23.20;99.90;;;;;;4995573;28;20383;-53
2024/01/03 10:30:31;;;;;;;;;;;23.30;99.90;;;;;;5010863;28;20482;-53
2024/01/03 10:33:01;;;;;;;4.78;2.38;;;23.30;99.90;;;;;;4995484;28;19964;-53
2024/01/03 10:35:31;;;;;;;4.30;2.08;;;23.40;99.90;;;;;;4995511;28;20527;-53
2024/01/03 10:37:59;;;;;;;4.88;2.00;;;23.40;99.90;;;;;;4995559;28;20030;-53
2024/01/03 10:40:26;;;;;;;3.95;2.10;;;23.40;99.90;;;;;;4995259;28;20061;-53
2024/01/03 10:42:53;;;;;;;3.80;1.80;;;23.50;99.90;;;;;;4995250;28;20120;-52
2024/01/03 10:45:20;;;;;;;4.25;2.33;;;23.50;99.90;;;;;;4995199;28;20030;-53
2024/01/03 10:47:46;;;;;;;4.45;2.30;;;23.60;99.90;;;;;;4995175;28;20025;-53
2024/01/03 10:50:12;;;;;;;3.72;2.05;;;23.60;99.90;;;;;;4995047;28;20034;-52
2024/01/03 10:52:40;;;;;;;3.63;2.20;;;23.70;99.90;;;;;;4995126;28;20026;-52
2024/01/03 10:55:10;;;;;;;3.47;2.10;;;23.70;99.90;;;;;;4994919;28;20034;-53
2024/01/03 10:57:39;;;;;;;5.43;2.50;;;23.70;99.90;;;;;;4994905;28;20073;-52
2024/01/03 11:00:45;;;;;;;3.33;2.13;;;23.80;99.90;;;;;;4994975;28;20491;-52
2024/01/03 11:03:30;;;;;;;5.50;2.45;;;23.80;99.90;;;;;;4994848;28;20041;-53
2024/01/03 11:05:59;;;;;;;6.22;2.35;;;23.90;99.90;;;;;;4994840;28;20038;-53
2024/01/03 11:08:35;;;;;;;6.57;2.50;;;23.90;99.90;;;;;;4994760;28;20433;-52
2024/01/03 11:11:01;;;;;;;7.72;2.17;;;23.90;99.90;;;;;;4994963;28;20045;-52
2024/01/03 11:13:29;;;;;;;5.90;2.05;;;24.00;99.90;;;;;;4994749;28;20014;-52
2024/01/03 11:15:59;;;;;;;6.28;2.60;;;24.00;99.90;;;;;;4994520;28;20048;-53
2024/01/03 11:18:43;;;;;;;4.43;2.10;;;24.00;99.90;;;;;;4994394;28;20056;-53
2024/01/03 11:21:23;;;;;;;5.85;2.45;;;24.00;99.90;;;;;;4994581;28;20436;-53
2024/01/03 11:23:48;;;;;;;7.10;2.30;;;24.10;99.90;;;;;;4994356;28;20018;-52
2024/01/03 11:26:14;;;;;;;2.95;1.80;;;24.10;99.90;;;;;;4994443;28;20106;-53
2024/01/03 11:28:48;;;;;;;4.30;2.05;;;24.10;99.90;;;;;;4994256;28;20030;-53
2024/01/03 11:31:34;;;;;;;3.30;2.15;;;24.20;99.90;;;;;;4994256;28;20073;-53
2024/01/03 11:34:00;;;;;;;5.20;2.72;;;24.20;99.90;;;;;;4994346;28;20034;-53
2024/01/03 11:36:44;;;;;;;4.60;1.98;;;24.20;99.90;;;;;;4994143;28;20033;-53
2024/01/03 11:39:37;;;;;;;6.47;1.85;;;24.20;99.90;;;;;;4994182;28;20053;-53
2024/01/03 11:42:03;;;;;;;5.18;1.98;;;24.30;99.90;;;;;;4994426;28;20574;-53
2024/01/03 11:44:29;;;;;;;5.72;2.40;;;24.30;99.90;;;;;;5009320;28;20493;-53
2024/01/03 11:46:59;;;;;;;9.45;2.47;;;24.30;99.90;;;;;;4993909;28;20022;-53
2024/01/03 11:49:25;;;;;;;8.43;2.42;;;24.40;99.90;;;;;;4993962;28;20367;-52
2024/01/03 11:51:51;;;;;;;5.57;2.00;;;24.40;99.90;;;;;;4993974;28;20097;-53
2024/01/03 11:54:17;;;;;;;5.68;2.30;;;24.50;99.90;;;;;;4993820;28;20054;-53
2024/01/03 11:56:43;;;;;;;3.65;2.08;;;24.50;99.90;;;;;;4993950;28;20502;-52
2024/01/03 11:59:09;;;;;;;3.58;2.22;;;24.50;99.90;;;;;;4993810;28;20027;-53
2024/01/03 12:01:35;;;;;;;5.13;2.60;;;24.50;99.90;;;;;;4992539;28;20052;-53
2024/01/03 12:04:27;;;;;;;5.85;2.22;;;24.60;99.90;;;;;;4993937;28;20065;-53
2024/01/03 12:06:58;;;;;;;4.13;2.40;;;24.60;99.90;;;;;;4992082;28;20132;-53
2024/01/03 12:09:32;;;;;;;4.95;2.58;;;24.60;99.90;;;;;;4993679;28;20026;-53
2024/01/03 12:11:58;;;;;;;7.70;2.53;;;24.60;99.90;;;;;;4993554;28;20109;-53
2024/01/03 12:14:24;;;;;;;4.85;2.22;;;24.70;99.90;;;;;;4993390;28;20073;-52
2024/01/03 12:16:53;;;;;;;4.13;1.73;;;24.70;99.90;;;;;;4992892;28;20046;-52
2024/01/03 12:19:27;;;;;;;4.55;2.03;;;24.70;99.90;;;;;;4993547;28;20052;-53
2024/01/03 12:22:00;;;;;;;5.25;2.05;;;24.70;99.90;;;;;;4993463;28;20105;-52
2024/01/03 12:24:38;;;;;;;4.75;2.42;;;24.70;99.90;;;;;;4993368;28;20048;-53
2024/01/03 12:27:05;;;;;;;5.60;2.50;;;24.80;99.90;;;;;;4993469;28;20101;-52
2024/01/03 12:29:33;;;;;;;5.03;2.17;;;24.80;99.90;;;;;;4993426;28;20027;-52
2024/01/03 12:32:09;;;;;;;7.63;2.22;;;24.80;99.90;;;;;;4993544;28;20467;-53
2024/01/03 12:34:34;;;;;;;4.45;1.90;;;24.90;99.90;;;;;;4993341;28;20034;-53
2024/01/03 12:37:00;;;;;;;3.90;2.58;;;24.90;99.90;;;;;;4993122;28;20032;-53
2024/01/03 12:39:26;;;;;;;4.38;2.10;;;24.90;99.90;;;;;;4993000;28;20092;-53
2024/01/03 12:41:52;;;;;;;5.72;2.40;;;24.90;99.90;;;;;;4993067;28;20048;-53
2024/01/03 12:44:17;;;;;;;4.75;2.03;;;25.00;99.90;;;;;;4993064;28;20026;-53
2024/01/03 12:46:43;;;;;;;4.75;2.17;;;25.00;99.90;;;;;;4993167;28;20426;-52